sensor_id;sensor_type;location;lat;lon;timestamp;temperature;humidity
41533;DHT22;27262;-35.248;149.138;2022-08-04T00:02:51;20.40;60.50
41533;DHT22;27262;-35.248;149.138;2022-08-04T00:05:34;20.40;60.80
41533;DHT22;27262;-35.248;149.138;2022-08-04T00:08:44;20.40;60.80
41533;DHT22;27262;-35.248;149.138;2022-08-04T00:11:21;20.40;60.80
41533;DHT22;27262;-35.248;149.138;2022-08-04T00:14:08;20.40;60.90
41533;DHT22;27262;-35.248;149.138;2022-08-04T00:16:42;20.40;61.00
41533;DHT22;27262;-35.248;149.138;2022-08-04T00:19:35;20.30;60.80
41533;DHT22;27262;-35.248;149.138;2022-08-04T00:22:08;20.40;60.70
41533;DHT22;27262;-35.248;149.138;2022-08-04T00:24:39;20.30;60.70
41533;DHT22;27262;-35.248;149.138;2022-08-04T00:27:11;20.30;61.10
41533;DHT22;27262;-35.248;149.138;2022-08-04T00:29:42;20.30;60.50
41533;DHT22;27262;-35.248;149.138;2022-08-04T00:32:13;20.30;60.50
41533;DHT22;27262;-35.248;149.138;2022-08-04T00:35:02;20.40;60.50
41533;DHT22;27262;-35.248;149.138;2022-08-04T00:37:32;20.30;60.30
41533;DHT22;27262;-35.248;149.138;2022-08-04T00:40:11;20.30;60.30
41533;DHT22;27262;-35.248;149.138;2022-08-04T00:46:12;20.40;60.20
41533;DHT22;27262;-35.248;149.138;2022-08-04T00:51:46;20.30;60.20
41533;DHT22;27262;-35.248;149.138;2022-08-04T00:55:10;20.30;60.20
41533;DHT22;27262;-35.248;149.138;2022-08-04T01:00:31;20.30;60.30
41533;DHT22;27262;-35.248;149.138;2022-08-04T01:03:26;20.30;60.30
41533;DHT22;27262;-35.248;149.138;2022-08-04T01:15:12;20.30;60.30
41533;DHT22;27262;-35.248;149.138;2022-08-04T01:17:53;20.20;60.30
41533;DHT22;27262;-35.248;149.138;2022-08-04T01:20:33;20.30;60.20
41533;DHT22;27262;-35.248;149.138;2022-08-04T01:23:28;20.30;60.10
41533;DHT22;27262;-35.248;149.138;2022-08-04T01:29:21;20.20;60.30
41533;DHT22;27262;-35.248;149.138;2022-08-04T01:32:09;20.20;60.40
41533;DHT22;27262;-35.248;149.138;2022-08-04T01:34:50;20.30;60.50
41533;DHT22;27262;-35.248;149.138;2022-08-04T01:40:09;20.30;60.50
41533;DHT22;27262;-35.248;149.138;2022-08-04T01:42:43;20.30;60.50
41533;DHT22;27262;-35.248;149.138;2022-08-04T01:45:16;20.30;60.40
41533;DHT22;27262;-35.248;149.138;2022-08-04T01:47:51;20.30;60.50
41533;DHT22;27262;-35.248;149.138;2022-08-04T01:50:24;20.30;60.50
41533;DHT22;27262;-35.248;149.138;2022-08-04T01:52:56;20.30;60.30
41533;DHT22;27262;-35.248;149.138;2022-08-04T01:55:28;20.30;60.50
41533;DHT22;27262;-35.248;149.138;2022-08-04T01:58:19;20.30;60.70
41533;DHT22;27262;-35.248;149.138;2022-08-04T02:01:05;20.40;60.80
41533;DHT22;27262;-35.248;149.138;2022-08-04T02:03:38;20.40;60.80
41533;DHT22;27262;-35.248;149.138;2022-08-04T02:09:46;20.40;60.80
41533;DHT22;27262;-35.248;149.138;2022-08-04T02:23:13;20.40;60.20
41533;DHT22;27262;-35.248;149.138;2022-08-04T02:25:46;20.40;60.20
41533;DHT22;27262;-35.248;149.138;2022-08-04T02:33:37;20.40;60.20
41533;DHT22;27262;-35.248;149.138;2022-08-04T02:36:13;20.40;60.20
41533;DHT22;27262;-35.248;149.138;2022-08-04T02:41:22;20.40;60.20
41533;DHT22;27262;-35.248;149.138;2022-08-04T02:43:59;20.40;60.30
41533;DHT22;27262;-35.248;149.138;2022-08-04T02:46:31;20.40;60.60
41533;DHT22;27262;-35.248;149.138;2022-08-04T02:49:05;20.40;60.70
41533;DHT22;27262;-35.248;149.138;2022-08-04T02:51:39;20.50;60.70
41533;DHT22;27262;-35.248;149.138;2022-08-04T02:54:10;20.50;60.80
41533;DHT22;27262;-35.248;149.138;2022-08-04T02:56:44;20.50;61.60
41533;DHT22;27262;-35.248;149.138;2022-08-04T02:59:22;20.50;60.70
41533;DHT22;27262;-35.248;149.138;2022-08-04T03:01:55;20.50;60.80
41533;DHT22;27262;-35.248;149.138;2022-08-04T03:04:56;20.50;60.80
41533;DHT22;27262;-35.248;149.138;2022-08-04T03:19:14;20.50;60.80
41533;DHT22;27262;-35.248;149.138;2022-08-04T03:38:58;20.60;61.20
41533;DHT22;27262;-35.248;149.138;2022-08-04T03:48:04;20.60;61.40
41533;DHT22;27262;-35.248;149.138;2022-08-04T03:57:33;20.60;61.40
41533;DHT22;27262;-35.248;149.138;2022-08-04T04:00:14;20.60;61.30
41533;DHT22;27262;-35.248;149.138;2022-08-04T04:03:08;20.60;61.30
41533;DHT22;27262;-35.248;149.138;2022-08-04T04:11:50;20.70;60.70
41533;DHT22;27262;-35.248;149.138;2022-08-04T04:15:07;20.60;61.10
41533;DHT22;27262;-35.248;149.138;2022-08-04T04:17:49;20.70;61.40
41533;DHT22;27262;-35.248;149.138;2022-08-04T04:26:05;20.70;61.70
41533;DHT22;27262;-35.248;149.138;2022-08-04T04:37:20;20.70;61.60
41533;DHT22;27262;-35.248;149.138;2022-08-04T04:45:48;20.60;61.00
41533;DHT22;27262;-35.248;149.138;2022-08-04T04:51:10;20.60;61.20
41533;DHT22;27262;-35.248;149.138;2022-08-04T04:53:59;20.60;61.00
41533;DHT22;27262;-35.248;149.138;2022-08-04T04:56:43;20.60;61.10
41533;DHT22;27262;-35.248;149.138;2022-08-04T04:59:21;20.70;61.30
41533;DHT22;27262;-35.248;149.138;2022-08-04T05:17:14;20.70;61.20
41533;DHT22;27262;-35.248;149.138;2022-08-04T05:19:54;20.70;61.20
41533;DHT22;27262;-35.248;149.138;2022-08-04T05:25:36;20.70;61.10
41533;DHT22;27262;-35.248;149.138;2022-08-04T05:28:25;20.70;61.20
41533;DHT22;27262;-35.248;149.138;2022-08-04T05:31:01;20.70;61.20
41533;DHT22;27262;-35.248;149.138;2022-08-04T05:33:33;20.70;61.20
41533;DHT22;27262;-35.248;149.138;2022-08-04T05:36:09;20.70;61.30
41533;DHT22;27262;-35.248;149.138;2022-08-04T05:38:53;20.70;61.20
41533;DHT22;27262;-35.248;149.138;2022-08-04T05:41:28;20.70;61.30
41533;DHT22;27262;-35.248;149.138;2022-08-04T05:44:19;20.70;61.30
41533;DHT22;27262;-35.248;149.138;2022-08-04T05:46:54;20.70;61.10
41533;DHT22;27262;-35.248;149.138;2022-08-04T05:49:28;20.60;61.00
41533;DHT22;27262;-35.248;149.138;2022-08-04T05:52:02;20.70;61.30
41533;DHT22;27262;-35.248;149.138;2022-08-04T05:54:34;20.70;61.40
41533;DHT22;27262;-35.248;149.138;2022-08-04T05:57:06;20.70;61.30
41533;DHT22;27262;-35.248;149.138;2022-08-04T05:59:39;20.70;61.30
41533;DHT22;27262;-35.248;149.138;2022-08-04T06:02:11;20.70;61.20
41533;DHT22;27262;-35.248;149.138;2022-08-04T06:04:47;20.70;61.10
41533;DHT22;27262;-35.248;149.138;2022-08-04T06:07:18;20.70;61.00
41533;DHT22;27262;-35.248;149.138;2022-08-04T06:09:49;20.70;60.90
41533;DHT22;27262;-35.248;149.138;2022-08-04T06:12:29;20.70;61.00
41533;DHT22;27262;-35.248;149.138;2022-08-04T06:15:02;20.70;62.00
41533;DHT22;27262;-35.248;149.138;2022-08-04T06:17:41;20.70;62.20
41533;DHT22;27262;-35.248;149.138;2022-08-04T06:20:34;20.70;62.70
41533;DHT22;27262;-35.248;149.138;2022-08-04T06:23:18;20.70;63.00
41533;DHT22;27262;-35.248;149.138;2022-08-04T06:25:56;20.70;63.20
41533;DHT22;27262;-35.248;149.138;2022-08-04T06:28:28;20.70;63.20
41533;DHT22;27262;-35.248;149.138;2022-08-04T06:31:02;20.70;63.40
41533;DHT22;27262;-35.248;149.138;2022-08-04T06:33:55;20.70;63.50
41533;DHT22;27262;-35.248;149.138;2022-08-04T06:36:27;20.70;63.60
41533;DHT22;27262;-35.248;149.138;2022-08-04T06:38:59;20.80;63.60
41533;DHT22;27262;-35.248;149.138;2022-08-04T06:41:31;20.80;63.60
41533;DHT22;27262;-35.248;149.138;2022-08-04T06:44:23;20.80;63.50
41533;DHT22;27262;-35.248;149.138;2022-08-04T06:46:54;20.80;63.50
41533;DHT22;27262;-35.248;149.138;2022-08-04T06:49:26;20.80;63.60
41533;DHT22;27262;-35.248;149.138;2022-08-04T06:52:12;20.80;63.50
41533;DHT22;27262;-35.248;149.138;2022-08-04T06:54:50;20.80;63.10
41533;DHT22;27262;-35.248;149.138;2022-08-04T06:57:32;20.80;62.80
41533;DHT22;27262;-35.248;149.138;2022-08-04T07:00:07;20.80;62.50
41533;DHT22;27262;-35.248;149.138;2022-08-04T07:03:00;20.80;62.30
41533;DHT22;27262;-35.248;149.138;2022-08-04T07:05:31;20.80;62.00
41533;DHT22;27262;-35.248;149.138;2022-08-04T07:08:03;20.80;62.10
41533;DHT22;27262;-35.248;149.138;2022-08-04T07:10:35;20.80;62.00
41533;DHT22;27262;-35.248;149.138;2022-08-04T07:13:05;20.80;62.20
41533;DHT22;27262;-35.248;149.138;2022-08-04T07:15:42;20.80;61.90
41533;DHT22;27262;-35.248;149.138;2022-08-04T07:18:13;20.80;61.80
41533;DHT22;27262;-35.248;149.138;2022-08-04T07:20:45;20.80;61.80
41533;DHT22;27262;-35.248;149.138;2022-08-04T07:23:28;20.80;61.80
41533;DHT22;27262;-35.248;149.138;2022-08-04T07:25:59;20.90;63.20
41533;DHT22;27262;-35.248;149.138;2022-08-04T07:28:40;20.80;63.60
41533;DHT22;27262;-35.248;149.138;2022-08-04T07:31:19;20.90;64.00
41533;DHT22;27262;-35.248;149.138;2022-08-04T07:34:02;20.90;64.50
41533;DHT22;27262;-35.248;149.138;2022-08-04T07:36:50;20.90;64.30
41533;DHT22;27262;-35.248;149.138;2022-08-04T07:45:24;20.90;64.60
41533;DHT22;27262;-35.248;149.138;2022-08-04T07:47:55;20.90;64.50
41533;DHT22;27262;-35.248;149.138;2022-08-04T07:53:21;20.90;64.50
41533;DHT22;27262;-35.248;149.138;2022-08-04T07:56:14;20.90;64.50
41533;DHT22;27262;-35.248;149.138;2022-08-04T07:58:44;20.90;64.40
41533;DHT22;27262;-35.248;149.138;2022-08-04T08:01:18;20.90;64.10
41533;DHT22;27262;-35.248;149.138;2022-08-04T08:03:50;20.90;63.80
41533;DHT22;27262;-35.248;149.138;2022-08-04T08:06:23;20.90;63.50
41533;DHT22;27262;-35.248;149.138;2022-08-04T08:09:05;20.90;63.40
41533;DHT22;27262;-35.248;149.138;2022-08-04T08:11:43;20.90;63.20
41533;DHT22;27262;-35.248;149.138;2022-08-04T08:14:34;20.90;63.10
41533;DHT22;27262;-35.248;149.138;2022-08-04T08:17:05;20.90;63.00
41533;DHT22;27262;-35.248;149.138;2022-08-04T08:19:36;20.90;62.90
41533;DHT22;27262;-35.248;149.138;2022-08-04T08:22:06;20.80;63.00
41533;DHT22;27262;-35.248;149.138;2022-08-04T08:24:39;20.90;63.00
41533;DHT22;27262;-35.248;149.138;2022-08-04T08:27:10;20.90;63.10
41533;DHT22;27262;-35.248;149.138;2022-08-04T08:29:40;20.90;63.10
41533;DHT22;27262;-35.248;149.138;2022-08-04T08:32:11;20.80;63.00
41533;DHT22;27262;-35.248;149.138;2022-08-04T08:34:43;20.80;63.10
41533;DHT22;27262;-35.248;149.138;2022-08-04T08:40:34;20.90;63.60
41533;DHT22;27262;-35.248;149.138;2022-08-04T08:46:42;20.80;63.90
41533;DHT22;27262;-35.248;149.138;2022-08-04T08:49:45;20.80;64.00
41533;DHT22;27262;-35.248;149.138;2022-08-04T09:13:03;20.80;64.70
41533;DHT22;27262;-35.248;149.138;2022-08-04T09:27:23;20.80;65.00
41533;DHT22;27262;-35.248;149.138;2022-08-04T09:30:10;20.80;65.70
41533;DHT22;27262;-35.248;149.138;2022-08-04T09:32:56;20.80;65.00
41533;DHT22;27262;-35.248;149.138;2022-08-04T09:36:06;20.70;64.90
41533;DHT22;27262;-35.248;149.138;2022-08-04T09:52:57;20.70;64.80
41533;DHT22;27262;-35.248;149.138;2022-08-04T10:01:28;20.70;64.70
41533;DHT22;27262;-35.248;149.138;2022-08-04T10:04:02;20.70;64.80
41533;DHT22;27262;-35.248;149.138;2022-08-04T10:06:45;20.70;64.80
41533;DHT22;27262;-35.248;149.138;2022-08-04T10:23:43;20.70;64.60
41533;DHT22;27262;-35.248;149.138;2022-08-04T10:29:18;20.60;64.70
41533;DHT22;27262;-35.248;149.138;2022-08-04T10:32:03;20.70;64.80
41533;DHT22;27262;-35.248;149.138;2022-08-04T10:35:00;20.60;64.70
41533;DHT22;27262;-35.248;149.138;2022-08-04T10:40:43;20.70;64.70
41533;DHT22;27262;-35.248;149.138;2022-08-04T10:43:56;20.60;64.70
41533;DHT22;27262;-35.248;149.138;2022-08-04T10:46:28;20.70;64.60
41533;DHT22;27262;-35.248;149.138;2022-08-04T10:49:24;20.60;64.60
41533;DHT22;27262;-35.248;149.138;2022-08-04T10:55:12;20.70;64.60
41533;DHT22;27262;-35.248;149.138;2022-08-04T10:58:06;20.60;64.70
41533;DHT22;27262;-35.248;149.138;2022-08-04T11:00:40;20.60;64.50
41533;DHT22;27262;-35.248;149.138;2022-08-04T11:05:57;20.60;64.50
41533;DHT22;27262;-35.248;149.138;2022-08-04T11:08:54;20.60;64.60
41533;DHT22;27262;-35.248;149.138;2022-08-04T11:11:32;20.60;64.50
41533;DHT22;27262;-35.248;149.138;2022-08-04T11:14:36;20.60;64.60
41533;DHT22;27262;-35.248;149.138;2022-08-04T11:17:31;20.60;64.50
41533;DHT22;27262;-35.248;149.138;2022-08-04T11:23:15;20.60;64.50
41533;DHT22;27262;-35.248;149.138;2022-08-04T11:26:05;20.60;64.60
41533;DHT22;27262;-35.248;149.138;2022-08-04T11:28:50;20.60;64.50
41533;DHT22;27262;-35.248;149.138;2022-08-04T11:31:32;20.60;64.50
41533;DHT22;27262;-35.248;149.138;2022-08-04T11:45:12;20.60;64.60
41533;DHT22;27262;-35.248;149.138;2022-08-04T11:50:34;20.60;64.70
41533;DHT22;27262;-35.248;149.138;2022-08-04T11:53:08;20.60;64.70
41533;DHT22;27262;-35.248;149.138;2022-08-04T11:55:40;20.60;64.60
41533;DHT22;27262;-35.248;149.138;2022-08-04T11:58:31;20.60;64.70
41533;DHT22;27262;-35.248;149.138;2022-08-04T12:04:01;20.60;64.70
41533;DHT22;27262;-35.248;149.138;2022-08-04T12:06:35;20.60;64.70
41533;DHT22;27262;-35.248;149.138;2022-08-04T12:10:08;20.60;64.70
41533;DHT22;27262;-35.248;149.138;2022-08-04T12:18:44;20.60;64.80
41533;DHT22;27262;-35.248;149.138;2022-08-04T12:23:57;20.60;64.80
41533;DHT22;27262;-35.248;149.138;2022-08-04T12:26:36;20.60;64.80
41533;DHT22;27262;-35.248;149.138;2022-08-04T12:29:07;20.60;64.80
41533;DHT22;27262;-35.248;149.138;2022-08-04T12:32:16;20.50;64.70
41533;DHT22;27262;-35.248;149.138;2022-08-04T12:35:00;20.60;64.70
41533;DHT22;27262;-35.248;149.138;2022-08-04T12:40:27;20.50;64.70
41533;DHT22;27262;-35.248;149.138;2022-08-04T12:45:40;20.50;64.70
41533;DHT22;27262;-35.248;149.138;2022-08-04T12:48:17;20.40;64.60
41533;DHT22;27262;-35.248;149.138;2022-08-04T12:50:56;20.40;64.30
41533;DHT22;27262;-35.248;149.138;2022-08-04T12:53:47;20.40;64.10
41533;DHT22;27262;-35.248;149.138;2022-08-04T12:56:25;20.40;64.00
41533;DHT22;27262;-35.248;149.138;2022-08-04T12:59:07;20.40;64.10
41533;DHT22;27262;-35.248;149.138;2022-08-04T13:01:44;20.40;64.20
41533;DHT22;27262;-35.248;149.138;2022-08-04T13:04:37;20.30;64.20
41533;DHT22;27262;-35.248;149.138;2022-08-04T13:07:21;20.30;64.20
41533;DHT22;27262;-35.248;149.138;2022-08-04T13:09:52;20.30;64.30
41533;DHT22;27262;-35.248;149.138;2022-08-04T13:12:25;20.30;65.10
41533;DHT22;27262;-35.248;149.138;2022-08-04T13:15:20;20.30;64.30
41533;DHT22;27262;-35.248;149.138;2022-08-04T13:18:03;20.20;64.20
41533;DHT22;27262;-35.248;149.138;2022-08-04T13:20:43;20.20;64.40
41533;DHT22;27262;-35.248;149.138;2022-08-04T13:23:16;20.20;64.50
41533;DHT22;27262;-35.248;149.138;2022-08-04T13:25:50;20.10;64.50
41533;DHT22;27262;-35.248;149.138;2022-08-04T13:28:44;20.20;64.50
41533;DHT22;27262;-35.248;149.138;2022-08-04T13:31:20;20.10;64.40
41533;DHT22;27262;-35.248;149.138;2022-08-04T13:33:54;20.10;64.50
41533;DHT22;27262;-35.248;149.138;2022-08-04T13:36:32;20.10;64.60
41533;DHT22;27262;-35.248;149.138;2022-08-04T13:39:16;20.10;64.60
41533;DHT22;27262;-35.248;149.138;2022-08-04T13:41:55;20.00;64.60
41533;DHT22;27262;-35.248;149.138;2022-08-04T13:44:33;20.10;64.60
41533;DHT22;27262;-35.248;149.138;2022-08-04T13:47:11;20.00;64.60
41533;DHT22;27262;-35.248;149.138;2022-08-04T13:52:39;20.00;64.50
41533;DHT22;27262;-35.248;149.138;2022-08-04T13:55:29;20.00;64.60
41533;DHT22;27262;-35.248;149.138;2022-08-04T13:58:12;20.00;64.60
41533;DHT22;27262;-35.248;149.138;2022-08-04T14:01:32;19.90;64.60
41533;DHT22;27262;-35.248;149.138;2022-08-04T14:04:02;19.90;64.60
41533;DHT22;27262;-35.248;149.138;2022-08-04T14:06:34;19.90;64.70
41533;DHT22;27262;-35.248;149.138;2022-08-04T14:09:16;19.90;64.70
41533;DHT22;27262;-35.248;149.138;2022-08-04T14:11:52;19.90;64.60
41533;DHT22;27262;-35.248;149.138;2022-08-04T14:14:48;19.90;64.70
41533;DHT22;27262;-35.248;149.138;2022-08-04T14:17:24;19.80;65.00
41533;DHT22;27262;-35.248;149.138;2022-08-04T14:19:59;19.90;64.70
41533;DHT22;27262;-35.248;149.138;2022-08-04T14:22:34;19.80;64.70
41533;DHT22;27262;-35.248;149.138;2022-08-04T14:25:15;19.80;64.70
41533;DHT22;27262;-35.248;149.138;2022-08-04T14:27:55;19.80;64.70
41533;DHT22;27262;-35.248;149.138;2022-08-04T14:30:43;19.80;64.70
41533;DHT22;27262;-35.248;149.138;2022-08-04T14:33:13;19.80;64.70
41533;DHT22;27262;-35.248;149.138;2022-08-04T14:36:03;19.70;64.70
41533;DHT22;27262;-35.248;149.138;2022-08-04T14:38:57;19.70;64.80
41533;DHT22;27262;-35.248;149.138;2022-08-04T14:41:30;19.70;64.80
41533;DHT22;27262;-35.248;149.138;2022-08-04T14:44:12;19.70;64.80
41533;DHT22;27262;-35.248;149.138;2022-08-04T14:46:51;19.70;64.90
41533;DHT22;27262;-35.248;149.138;2022-08-04T14:49:22;19.70;64.90
41533;DHT22;27262;-35.248;149.138;2022-08-04T14:51:58;19.70;64.90
41533;DHT22;27262;-35.248;149.138;2022-08-04T14:54:32;19.70;64.90
41533;DHT22;27262;-35.248;149.138;2022-08-04T14:57:06;19.60;64.90
41533;DHT22;27262;-35.248;149.138;2022-08-04T14:59:47;19.60;64.90
41533;DHT22;27262;-35.248;149.138;2022-08-04T15:02:30;19.60;65.00
41533;DHT22;27262;-35.248;149.138;2022-08-04T15:05:02;19.60;65.10
41533;DHT22;27262;-35.248;149.138;2022-08-04T15:07:52;19.60;65.10
41533;DHT22;27262;-35.248;149.138;2022-08-04T15:10:23;19.50;65.00
41533;DHT22;27262;-35.248;149.138;2022-08-04T15:12:54;19.50;65.10
41533;DHT22;27262;-35.248;149.138;2022-08-04T15:15:25;19.50;65.10
41533;DHT22;27262;-35.248;149.138;2022-08-04T15:18:07;19.50;65.20
41533;DHT22;27262;-35.248;149.138;2022-08-04T15:20:39;19.50;65.30
41533;DHT22;27262;-35.248;149.138;2022-08-04T15:23:12;19.50;65.30
41533;DHT22;27262;-35.248;149.138;2022-08-04T15:25:49;19.40;65.40
41533;DHT22;27262;-35.248;149.138;2022-08-04T15:28:22;19.40;65.50
41533;DHT22;27262;-35.248;149.138;2022-08-04T15:30:55;19.40;65.50
41533;DHT22;27262;-35.248;149.138;2022-08-04T15:33:26;19.40;65.50
41533;DHT22;27262;-35.248;149.138;2022-08-04T15:36:26;19.40;65.40
41533;DHT22;27262;-35.248;149.138;2022-08-04T15:45:11;19.40;65.40
41533;DHT22;27262;-35.248;149.138;2022-08-04T15:47:42;19.30;65.30
41533;DHT22;27262;-35.248;149.138;2022-08-04T15:50:20;19.30;65.30
41533;DHT22;27262;-35.248;149.138;2022-08-04T15:55:43;19.20;65.20
41533;DHT22;27262;-35.248;149.138;2022-08-04T15:58:15;19.20;65.20
41533;DHT22;27262;-35.248;149.138;2022-08-04T16:09:01;19.20;65.10
41533;DHT22;27262;-35.248;149.138;2022-08-04T16:14:09;19.10;64.80
41533;DHT22;27262;-35.248;149.138;2022-08-04T16:19:51;19.10;64.70
41533;DHT22;27262;-35.248;149.138;2022-08-04T16:22:35;19.10;64.60
41533;DHT22;27262;-35.248;149.138;2022-08-04T16:25:09;19.10;64.70
41533;DHT22;27262;-35.248;149.138;2022-08-04T16:27:43;19.10;64.70
41533;DHT22;27262;-35.248;149.138;2022-08-04T16:30:14;19.10;64.60
41533;DHT22;27262;-35.248;149.138;2022-08-04T16:32:48;19.00;64.40
41533;DHT22;27262;-35.248;149.138;2022-08-04T16:35:24;19.00;64.40
41533;DHT22;27262;-35.248;149.138;2022-08-04T16:38:14;19.00;64.40
41533;DHT22;27262;-35.248;149.138;2022-08-04T16:43:15;19.00;64.40
41533;DHT22;27262;-35.248;149.138;2022-08-04T16:53:35;18.90;64.30
41533;DHT22;27262;-35.248;149.138;2022-08-04T16:56:30;18.90;64.30
41533;DHT22;27262;-35.248;149.138;2022-08-04T16:59:10;18.90;64.20
41533;DHT22;27262;-35.248;149.138;2022-08-04T17:01:48;18.90;64.20
41533;DHT22;27262;-35.248;149.138;2022-08-04T17:04:29;18.90;64.20
41533;DHT22;27262;-35.248;149.138;2022-08-04T17:07:03;18.90;64.20
41533;DHT22;27262;-35.248;149.138;2022-08-04T17:09:33;18.80;64.20
41533;DHT22;27262;-35.248;149.138;2022-08-04T17:12:04;18.80;64.20
41533;DHT22;27262;-35.248;149.138;2022-08-04T17:14:34;18.80;64.20
41533;DHT22;27262;-35.248;149.138;2022-08-04T17:17:05;18.80;64.20
41533;DHT22;27262;-35.248;149.138;2022-08-04T17:19:36;18.80;64.20
41533;DHT22;27262;-35.248;149.138;2022-08-04T17:22:08;18.80;64.20
41533;DHT22;27262;-35.248;149.138;2022-08-04T17:24:39;18.70;64.10
41533;DHT22;27262;-35.248;149.138;2022-08-04T17:27:10;18.80;64.20
41533;DHT22;27262;-35.248;149.138;2022-08-04T17:30:01;18.70;64.10
41533;DHT22;27262;-35.248;149.138;2022-08-04T17:32:31;18.70;64.20
41533;DHT22;27262;-35.248;149.138;2022-08-04T17:35:07;18.70;64.20
41533;DHT22;27262;-35.248;149.138;2022-08-04T17:37:41;18.70;64.20
41533;DHT22;27262;-35.248;149.138;2022-08-04T17:40:20;18.70;64.20
41533;DHT22;27262;-35.248;149.138;2022-08-04T17:43:11;18.60;64.10
41533;DHT22;27262;-35.248;149.138;2022-08-04T17:46:18;18.60;64.00
41533;DHT22;27262;-35.248;149.138;2022-08-04T17:54:38;18.60;64.20
41533;DHT22;27262;-35.248;149.138;2022-08-04T17:59:51;18.60;64.20
41533;DHT22;27262;-35.248;149.138;2022-08-04T18:02:27;18.50;64.10
41533;DHT22;27262;-35.248;149.138;2022-08-04T18:05:26;18.50;64.10
41533;DHT22;27262;-35.248;149.138;2022-08-04T18:08:25;18.50;64.10
41533;DHT22;27262;-35.248;149.138;2022-08-04T18:11:18;18.50;64.20
41533;DHT22;27262;-35.248;149.138;2022-08-04T18:13:56;18.50;64.20
41533;DHT22;27262;-35.248;149.138;2022-08-04T18:16:27;18.40;64.20
41533;DHT22;27262;-35.248;149.138;2022-08-04T18:19:10;18.40;64.20
41533;DHT22;27262;-35.248;149.138;2022-08-04T18:21:41;18.40;64.10
41533;DHT22;27262;-35.248;149.138;2022-08-04T18:24:32;18.40;64.10
41533;DHT22;27262;-35.248;149.138;2022-08-04T18:27:24;18.40;64.20
41533;DHT22;27262;-35.248;149.138;2022-08-04T18:29:57;18.40;64.20
41533;DHT22;27262;-35.248;149.138;2022-08-04T18:32:47;18.40;64.20
41533;DHT22;27262;-35.248;149.138;2022-08-04T18:35:38;18.40;64.20
41533;DHT22;27262;-35.248;149.138;2022-08-04T18:38:28;18.40;64.30
41533;DHT22;27262;-35.248;149.138;2022-08-04T18:40:58;18.30;64.30
41533;DHT22;27262;-35.248;149.138;2022-08-04T18:43:35;18.30;64.20
41533;DHT22;27262;-35.248;149.138;2022-08-04T18:46:07;18.30;64.20
41533;DHT22;27262;-35.248;149.138;2022-08-04T18:48:42;18.30;64.20
41533;DHT22;27262;-35.248;149.138;2022-08-04T18:51:20;18.30;64.20
41533;DHT22;27262;-35.248;149.138;2022-08-04T18:53:52;18.30;64.20
41533;DHT22;27262;-35.248;149.138;2022-08-04T18:56:27;18.30;64.30
41533;DHT22;27262;-35.248;149.138;2022-08-04T18:59:01;18.30;64.20
41533;DHT22;27262;-35.248;149.138;2022-08-04T19:01:52;18.20;64.20
41533;DHT22;27262;-35.248;149.138;2022-08-04T19:04:43;18.20;64.20
41533;DHT22;27262;-35.248;149.138;2022-08-04T19:07:19;18.20;64.30
41533;DHT22;27262;-35.248;149.138;2022-08-04T19:09:57;18.20;64.30
41533;DHT22;27262;-35.248;149.138;2022-08-04T19:12:28;18.20;64.30
41533;DHT22;27262;-35.248;149.138;2022-08-04T19:15:02;18.20;64.30
41533;DHT22;27262;-35.248;149.138;2022-08-04T19:17:38;18.10;64.20
41533;DHT22;27262;-35.248;149.138;2022-08-04T19:20:24;18.10;64.20
41533;DHT22;27262;-35.248;149.138;2022-08-04T19:22:56;18.10;65.10
41533;DHT22;27262;-35.248;149.138;2022-08-04T19:25:46;18.10;64.30
41533;DHT22;27262;-35.248;149.138;2022-08-04T19:28:33;18.10;64.30
41533;DHT22;27262;-35.248;149.138;2022-08-04T19:31:06;18.10;64.30
41533;DHT22;27262;-35.248;149.138;2022-08-04T19:33:38;18.10;64.30
41533;DHT22;27262;-35.248;149.138;2022-08-04T19:36:30;18.10;64.30
41533;DHT22;27262;-35.248;149.138;2022-08-04T19:39:05;18.00;64.30
41533;DHT22;27262;-35.248;149.138;2022-08-04T19:41:56;18.00;64.30
41533;DHT22;27262;-35.248;149.138;2022-08-04T19:44:33;18.00;64.40
41533;DHT22;27262;-35.248;149.138;2022-08-04T19:47:11;18.00;64.30
41533;DHT22;27262;-35.248;149.138;2022-08-04T19:50:02;18.00;64.40
41533;DHT22;27262;-35.248;149.138;2022-08-04T19:52:38;18.00;64.40
41533;DHT22;27262;-35.248;149.138;2022-08-04T19:55:20;18.00;64.40
41533;DHT22;27262;-35.248;149.138;2022-08-04T19:58:06;17.90;64.30
41533;DHT22;27262;-35.248;149.138;2022-08-04T20:00:39;17.90;64.30
41533;DHT22;27262;-35.248;149.138;2022-08-04T20:03:18;17.90;64.30
41533;DHT22;27262;-35.248;149.138;2022-08-04T20:05:48;17.90;64.40
41533;DHT22;27262;-35.248;149.138;2022-08-04T20:08:26;17.90;64.30
41533;DHT22;27262;-35.248;149.138;2022-08-04T20:10:57;17.90;64.30
41533;DHT22;27262;-35.248;149.138;2022-08-04T20:13:28;17.90;64.40
41533;DHT22;27262;-35.248;149.138;2022-08-04T20:16:06;17.80;64.30
41533;DHT22;27262;-35.248;149.138;2022-08-04T20:18:57;17.80;64.30
41533;DHT22;27262;-35.248;149.138;2022-08-04T20:21:32;17.80;64.30
41533;DHT22;27262;-35.248;149.138;2022-08-04T20:24:22;17.80;64.30
41533;DHT22;27262;-35.248;149.138;2022-08-04T20:27:09;17.80;64.40
41533;DHT22;27262;-35.248;149.138;2022-08-04T20:29:47;17.80;64.40
41533;DHT22;27262;-35.248;149.138;2022-08-04T20:32:18;17.80;64.40
41533;DHT22;27262;-35.248;149.138;2022-08-04T20:34:52;17.80;64.40
41533;DHT22;27262;-35.248;149.138;2022-08-04T20:37:24;17.70;64.30
41533;DHT22;27262;-35.248;149.138;2022-08-04T20:40:15;17.70;64.30
41533;DHT22;27262;-35.248;149.138;2022-08-04T20:42:46;17.70;64.30
41533;DHT22;27262;-35.248;149.138;2022-08-04T20:45:19;17.70;64.30
41533;DHT22;27262;-35.248;149.138;2022-08-04T20:48:09;17.70;64.30
41533;DHT22;27262;-35.248;149.138;2022-08-04T20:50:46;17.70;64.40
41533;DHT22;27262;-35.248;149.138;2022-08-04T20:53:16;17.70;64.40
41533;DHT22;27262;-35.248;149.138;2022-08-04T20:55:59;17.70;64.40
41533;DHT22;27262;-35.248;149.138;2022-08-04T20:58:30;17.60;64.40
41533;DHT22;27262;-35.248;149.138;2022-08-04T21:01:00;17.70;64.50
41533;DHT22;27262;-35.248;149.138;2022-08-04T21:03:32;17.60;64.40
41533;DHT22;27262;-35.248;149.138;2022-08-04T21:06:27;17.60;64.40
41533;DHT22;27262;-35.248;149.138;2022-08-04T21:08:58;17.60;64.50
41533;DHT22;27262;-35.248;149.138;2022-08-04T21:11:42;17.60;64.50